CheckWX is a tool to help pilots better visualize weather data.  It is not intended as a substitute for an official pre-flight weather briefing.

06:08:41 UTC

KPIL METAR
Port Isabel-Cameron County Airport
Port Isabel, Texas, USA
Current

16 mins ago

KPIL 230553Z AUTO 13009KT 6SM BR FEW024 OVC032 23/22 A2996 RMK AO2 SLP145 T02330217 10250 20233 402780206 51005
Observed
Apr-23 @ 05:53 UTC
Wind
  • 130° at 9 KTS
Visibility
6 SM
Flight Rules
VFR
Conditions
Mist
Cloud Levels
  • Few at 2,400' AGL
  • Overcast at 3,200' AGL
Temperature
23°C / 73°F
Dewpoint
22°C / 72°F
Humidity
94%
Altimeter
29.96" Hg
Pressure
1014.52 hPa
Previous

24 mins ago

KPIL 230545Z AUTO 13010KT 6SM BR SCT026 OVC035 23/22 A2996 RMK AO2 T02330217
Observed
Apr-23 @ 05:45 UTC
Wind
  • 130° at 10 KTS
Visibility
6 SM
Flight Rules
VFR
Conditions
Mist
Cloud Levels
  • Scattered at 2,600' AGL
  • Overcast at 3,500' AGL
Temperature
23°C / 73°F
Dewpoint
22°C / 72°F
Humidity
94%
Altimeter
29.96" Hg
Pressure
1014.52 hPa
Previous

1 hour ago

KPIL 230453Z AUTO 13010KT 7SM SCT009 OVC023 24/22 A2996 RMK AO2 SLP145 T02390217
Observed
Apr-23 @ 04:53 UTC
Wind
  • 130° at 10 KTS
Visibility
7 SM
Flight Rules
MVFR
Cloud Levels
  • Scattered at 900' AGL
  • Overcast at 2,300' AGL
Temperature
24°C / 75°F
Dewpoint
22°C / 72°F
Humidity
89%
Altimeter
29.96" Hg
Pressure
1014.52 hPa